Airfield :
LOGIN :

Register | Disclaimer

   EN    FR    IT 

 










Legend :    VFR   Marginal VFR   IFR   Intensive IFR   Very Intensive IFR
Visi :
Ceiling :
>= 8 km
>= 3000ft
5 to 8 km
1000 to 3000 ft
1500m to 5 km
500 to 1000 ft
800 to 1500m
200 to 500 ft
< 800m
< 200 ft
Symbols :   Thunderstorms  Fog  Heavy snow  Heavy precipitations  Wind > 20 kt
SIGMETs :     Misc.  Thunderstorms  Icing  Turbulence  Mountain Waves  Volcanic Ashes






- Airport Elevation : 1079 ft


ETIK - Illesheim Air Base

CURRENT METAR :
  • 281056Z AUTO 23012KT 9999 BKN017 OVC026 13/13 A2994 RMK AO2 SLP143 T01250125 $

EXPIRED METARs :
  • 281041Z AUTO 23015KT 9999 BKN016 OVC022 12/12 A2994 RMK AO2 BKN V OVC SLP143 $
  • 281008Z 22013KT 9999 OVC014 12/12 A2993 RMK SLP141 $
  • 280956Z AUTO 22012KT 9999 BKN016 OVC022 12/12 A2993 RMK AO2 DZB09E21RAB21E28DZB28E33 SLP141 P0000 T01180118 $
  • 280932Z 21009KT 9999 SCT015 SCT031 OVC039 11/11 A2992 RMK AO2A DZB09E35 SLP138 $
  • 280909Z COR 22011KT 6000 -DZ SCT014 BKN030 BKN036 OVC060 11/11 A2992 RMK AO2 DZB09 SLP138 $ COR 0917
  • 280856Z AUTO 22011KT 9999 FEW014 SCT027 BKN047 OVC060 11/11 A2992 RMK AO2 DZB17E32RAB32E43DZB43E50 SLP138 P0001 60002 T01090109 52018 $
  • 280817Z AUTO 21012G16KT 9999 -DZ FEW025 SCT036 OVC044 11/11 A2990 RMK AO2 DZB17 SLP131 $

TAF TAF ETIK
Valid from the 28 at 07:00 until the 29 at 13:00 UTC


2807/2913 20012KT 8000 -SHRA BKN030 OVC060 QNH2984INS
BECMG 2811/2812 24010G15KT 9999 NSW BKN040 OVC060 QNH2986INS
BECMG 2821/2822 21012G18KT 8000 -SHRA BKN010 QNH2988INS
BECMG 2907/2908 26012KT 9999 NSW BKN020 QNH2992INS TX13/2813Z TN06/2904Z



MET'MAP, your aeronautical weather chart ! - Copyright ORBIFLY December 2007 - Disclaimer

ORBIFLY MET'MAP TEAM :

Programming & Development : Alexandra Zaïnal
Concept & original design : Baudouin d'Aumeries
Assistance for programming : Marc-Olivier Méhu
Technical & hardware support : Manuel Goepfert

Contact : metmap@orbifly.com




SOURCES & CREDITS :

   NOAA